createdAt,value
2023-11-26T00:00:28.533Z,16.25
2023-11-26T00:02:55.304Z,12.60
2023-11-26T00:05:22.019Z,14.23
2023-11-26T00:07:48.737Z,12.00
2023-11-26T00:10:15.449Z,15.60
2023-11-26T00:12:42.039Z,15.23
2023-11-26T00:15:10.034Z,15.38
2023-11-26T00:17:36.952Z,15.95
2023-11-26T00:20:03.864Z,14.88
2023-11-26T00:22:30.475Z,16.23
2023-11-26T00:24:57.095Z,18.38
2023-11-26T00:27:24.305Z,22.20
2023-11-26T00:29:50.822Z,14.27
2023-11-26T00:32:18.036Z,14.85
2023-11-26T00:34:44.964Z,12.70
2023-11-26T00:37:11.757Z,11.13
2023-11-26T00:39:38.374Z,16.73
2023-11-26T00:42:05.108Z,12.98
2023-11-26T00:44:31.725Z,12.48
2023-11-26T00:46:58.446Z,13.18
2023-11-26T00:49:25.015Z,13.30
2023-11-26T00:51:51.681Z,12.95
2023-11-26T00:54:18.325Z,11.93
2023-11-26T00:56:44.950Z,15.40
2023-11-26T00:59:11.727Z,10.48
2023-11-26T01:01:38.445Z,12.73
2023-11-26T01:04:05.297Z,16.35
2023-11-26T01:06:32.434Z,11.65
2023-11-26T01:08:58.926Z,12.88
2023-11-26T01:11:26.776Z,13.32
2023-11-26T01:13:53.584Z,11.15
2023-11-26T01:16:20.621Z,9.73
2023-11-26T01:18:47.947Z,12.35
2023-11-26T01:21:14.991Z,12.60
2023-11-26T01:23:41.697Z,10.60
2023-11-26T01:26:08.518Z,13.18
2023-11-26T01:28:35.125Z,9.90
2023-11-26T01:31:01.716Z,8.73
2023-11-26T01:33:28.846Z,9.50
2023-11-26T01:35:55.498Z,10.50
2023-11-26T01:38:22.879Z,10.23
2023-11-26T01:40:49.641Z,9.38
2023-11-26T01:43:16.261Z,9.48
2023-11-26T01:45:42.806Z,8.77
2023-11-26T01:48:09.326Z,10.43
2023-11-26T01:50:35.878Z,8.68
2023-11-26T01:53:02.566Z,7.95
2023-11-26T01:55:29.151Z,8.52
2023-11-26T01:57:55.758Z,8.73
2023-11-26T02:00:23.042Z,8.05
2023-11-26T02:02:50.276Z,6.43
2023-11-26T02:05:17.303Z,8.98
2023-11-26T02:07:44.214Z,8.50
2023-11-26T02:10:10.801Z,8.73
2023-11-26T02:12:37.365Z,10.77
2023-11-26T02:15:04.393Z,11.77
2023-11-26T02:17:31.817Z,8.15
2023-11-26T02:20:01.881Z,9.63
2023-11-26T02:22:29.520Z,8.13
2023-11-26T02:24:56.322Z,8.80
2023-11-26T02:27:22.911Z,8.88
2023-11-26T02:29:49.515Z,9.45
2023-11-26T02:32:16.115Z,7.53
2023-11-26T02:34:42.744Z,7.85
2023-11-26T02:37:09.314Z,9.45
2023-11-26T02:39:35.923Z,9.55
2023-11-26T02:42:02.690Z,7.85
2023-11-26T02:44:29.202Z,9.75
2023-11-26T02:46:55.929Z,9.07
2023-11-26T02:49:22.535Z,8.57
2023-11-26T02:51:49.161Z,8.98
2023-11-26T02:54:15.740Z,7.75
2023-11-26T02:56:42.887Z,7.90
2023-11-26T02:59:10.196Z,9.95
2023-11-26T03:01:36.767Z,7.70
2023-11-26T03:04:03.605Z,9.50
2023-11-26T03:06:32.607Z,7.80
2023-11-26T03:09:02.173Z,8.90
2023-11-26T03:11:47.437Z,8.02
2023-11-26T03:14:15.028Z,5.75
2023-11-26T03:16:46.030Z,8.15
2023-11-26T03:19:16.275Z,12.17
2023-11-26T03:21:44.512Z,11.85
2023-11-26T03:24:11.286Z,7.45
2023-11-26T03:26:37.946Z,8.65
2023-11-26T03:29:05.826Z,8.25
2023-11-26T03:31:32.410Z,7.63
2023-11-26T03:33:59.274Z,6.72
2023-11-26T03:36:26.204Z,8.52
2023-11-26T03:38:53.684Z,9.23
2023-11-26T03:41:20.219Z,9.73
2023-11-26T03:43:46.733Z,7.70
2023-11-26T03:46:13.212Z,7.65
2023-11-26T03:48:40.243Z,9.68
2023-11-26T03:51:06.875Z,8.95
2023-11-26T03:53:33.466Z,6.75
2023-11-26T03:56:00.192Z,8.43
2023-11-26T03:58:26.867Z,9.38
2023-11-26T04:00:53.586Z,8.57
2023-11-26T04:03:20.101Z,8.57
2023-11-26T04:05:46.622Z,12.05
2023-11-26T04:08:13.264Z,7.82
2023-11-26T04:10:41.472Z,6.93
2023-11-26T04:13:08.499Z,7.78
2023-11-26T04:15:37.439Z,8.52
2023-11-26T04:18:04.027Z,9.25
2023-11-26T04:20:30.845Z,10.00
2023-11-26T04:22:57.512Z,14.45
2023-11-26T04:25:24.756Z,16.38
2023-11-26T04:27:52.005Z,9.55
2023-11-26T04:30:18.659Z,9.07
2023-11-26T04:32:45.345Z,7.47
2023-11-26T04:35:12.513Z,7.57
2023-11-26T04:37:39.191Z,9.77
2023-11-26T04:40:10.529Z,9.40
2023-11-26T04:42:37.105Z,12.15
2023-11-26T04:45:04.092Z,11.98
2023-11-26T04:47:30.752Z,9.85
2023-11-26T04:49:59.736Z,8.32
2023-11-26T04:52:26.697Z,8.98
2023-11-26T04:54:53.286Z,11.15
2023-11-26T04:57:19.770Z,9.65
2023-11-26T04:59:46.253Z,10.95
2023-11-26T05:02:15.640Z,8.82
2023-11-26T05:04:42.540Z,7.97
2023-11-26T05:07:09.722Z,10.52
2023-11-26T05:09:36.249Z,8.40
2023-11-26T05:12:06.642Z,7.38
2023-11-26T05:14:33.203Z,8.32
2023-11-26T05:17:00.101Z,14.60
2023-11-26T05:19:26.763Z,12.13
2023-11-26T05:21:53.912Z,11.30
2023-11-26T05:24:20.435Z,11.43
2023-11-26T05:26:48.540Z,10.20
2023-11-26T05:29:15.139Z,14.65
2023-11-26T05:31:41.658Z,13.77
2023-11-26T05:34:08.143Z,14.95
2023-11-26T05:36:34.739Z,8.63
2023-11-26T05:39:01.344Z,10.50
2023-11-26T05:41:27.925Z,10.23
2023-11-26T05:43:54.688Z,8.77
2023-11-26T05:46:21.336Z,10.57
2023-11-26T05:48:48.105Z,10.40
2023-11-26T05:51:20.586Z,12.10
2023-11-26T05:53:47.415Z,11.10
2023-11-26T05:56:13.923Z,13.55
2023-11-26T05:58:40.431Z,13.25
2023-11-26T06:01:07.642Z,13.27
2023-11-26T06:03:34.239Z,9.32
2023-11-26T06:06:00.770Z,13.07
2023-11-26T06:08:27.248Z,11.43
2023-11-26T06:10:53.725Z,17.05
2023-11-26T06:13:20.224Z,12.77
2023-11-26T06:15:48.121Z,12.82
2023-11-26T06:18:16.207Z,15.48
2023-11-26T06:20:43.823Z,11.25
2023-11-26T06:23:11.542Z,10.18
2023-11-26T06:25:39.487Z,14.30
2023-11-26T06:28:07.559Z,14.35
2023-11-26T06:30:34.246Z,13.95
2023-11-26T06:33:02.976Z,12.48
2023-11-26T06:35:34.461Z,14.40
2023-11-26T06:38:07.101Z,12.10
2023-11-26T06:40:33.710Z,13.75
2023-11-26T06:43:01.427Z,14.32
2023-11-26T06:45:29.544Z,11.38
2023-11-26T06:47:57.251Z,15.00
2023-11-26T06:50:24.994Z,14.43
2023-11-26T06:52:53.026Z,17.23
2023-11-26T06:55:23.157Z,14.35
2023-11-26T06:57:50.565Z,16.90
2023-11-26T07:00:17.397Z,14.68
2023-11-26T07:02:45.612Z,15.07
2023-11-26T07:05:14.078Z,13.60
2023-11-26T07:07:42.029Z,17.13
2023-11-26T07:10:08.946Z,16.00
2023-11-26T07:12:36.780Z,11.75
2023-11-26T07:15:06.242Z,16.83
2023-11-26T07:17:33.386Z,17.73
2023-11-26T07:19:59.969Z,17.52
2023-11-26T07:22:26.793Z,15.52
2023-11-26T07:24:54.700Z,15.65
2023-11-26T07:27:22.734Z,14.68
2023-11-26T07:29:49.354Z,15.75
2023-11-26T07:32:15.959Z,20.25
2023-11-26T07:34:44.000Z,14.98
2023-11-26T07:37:12.491Z,20.77
2023-11-26T07:39:41.392Z,14.82
2023-11-26T07:42:09.198Z,18.80
2023-11-26T07:44:37.667Z,11.93
2023-11-26T07:47:06.790Z,11.55
2023-11-26T07:49:37.407Z,13.43
2023-11-26T07:52:05.491Z,10.23
2023-11-26T07:54:33.845Z,18.30
2023-11-26T07:57:01.918Z,12.05
2023-11-26T07:59:28.390Z,16.20
2023-11-26T08:01:56.449Z,12.07
2023-11-26T08:04:27.740Z,15.77
2023-11-26T08:06:55.178Z,13.77
2023-11-26T08:09:23.050Z,10.95
2023-11-26T08:11:53.730Z,7.90
2023-11-26T08:14:21.674Z,10.07
2023-11-26T08:16:48.180Z,12.25
2023-11-26T08:19:17.687Z,11.18
2023-11-26T08:21:46.139Z,12.90
2023-11-26T08:24:19.458Z,11.80
2023-11-26T08:26:48.608Z,13.35
2023-11-26T08:29:19.709Z,16.05
2023-11-26T08:31:50.645Z,10.17
2023-11-26T08:34:18.872Z,11.57
2023-11-26T08:36:45.777Z,15.10
2023-11-26T08:39:27.955Z,12.02
2023-11-26T08:41:56.221Z,10.82
2023-11-26T08:44:22.691Z,13.05
2023-11-26T08:46:49.355Z,10.75
2023-11-26T08:49:23.505Z,15.73
2023-11-26T08:51:51.449Z,12.70
2023-11-26T08:54:19.574Z,11.40
2023-11-26T08:56:46.426Z,10.48
2023-11-26T08:59:13.034Z,14.82
2023-11-26T09:01:39.912Z,15.88
2023-11-26T09:04:08.356Z,20.50
2023-11-26T09:06:35.033Z,25.75
2023-11-26T09:09:02.001Z,9.82
2023-11-26T09:11:29.741Z,20.33
2023-11-26T09:13:59.326Z,12.38
2023-11-26T09:16:26.952Z,13.38
2023-11-26T09:18:53.561Z,13.65
2023-11-26T09:21:24.178Z,13.90
2023-11-26T09:23:53.306Z,17.98
2023-11-26T09:26:19.913Z,15.98
2023-11-26T09:28:53.753Z,17.50
2023-11-26T09:31:24.396Z,18.98
2023-11-26T09:33:52.387Z,15.32
2023-11-26T09:36:20.468Z,16.42
2023-11-26T09:38:47.258Z,18.15
2023-11-26T09:41:21.571Z,20.63
2023-11-26T09:43:48.385Z,14.68
2023-11-26T09:46:16.463Z,18.20
2023-11-26T09:48:44.046Z,13.57
2023-11-26T09:51:10.909Z,14.40
2023-11-26T09:53:39.236Z,17.15
2023-11-26T09:56:06.041Z,13.32
2023-11-26T09:58:42.515Z,16.88
2023-11-26T10:01:09.448Z,15.50
2023-11-26T10:03:55.696Z,19.05
2023-11-26T10:06:23.987Z,13.20
2023-11-26T10:08:52.068Z,14.40
2023-11-26T10:11:25.985Z,13.02
2023-11-26T10:13:54.150Z,16.23
2023-11-26T10:16:30.000Z,19.30
2023-11-26T10:18:56.636Z,14.00
2023-11-26T10:21:26.425Z,21.42
2023-11-26T10:23:54.029Z,17.48
2023-11-26T10:26:20.840Z,14.50
2023-11-26T10:29:09.948Z,14.27
2023-11-26T10:31:38.280Z,17.85
2023-11-26T10:34:15.025Z,19.00
2023-11-26T10:36:43.520Z,16.02
2023-11-26T10:39:13.684Z,16.75
2023-11-26T10:41:42.156Z,19.73
2023-11-26T10:44:10.203Z,19.85
2023-11-26T10:46:38.146Z,16.08
2023-11-26T10:49:24.970Z,17.98
2023-11-26T10:52:09.489Z,18.27
2023-11-26T10:54:54.580Z,18.27
2023-11-26T10:57:42.908Z,12.50
2023-11-26T11:00:19.759Z,19.63
2023-11-26T11:02:46.987Z,16.23
2023-11-26T11:05:13.874Z,14.50
2023-11-26T11:07:41.366Z,13.07
2023-11-26T11:10:11.395Z,12.55
2023-11-26T11:12:58.851Z,12.18
2023-11-26T11:15:26.159Z,8.90
2023-11-26T11:17:53.175Z,8.90
2023-11-26T11:20:19.899Z,8.88
2023-11-26T11:22:47.927Z,12.02
2023-11-26T11:25:21.034Z,10.90
2023-11-26T11:27:50.692Z,9.18
2023-11-26T11:30:32.662Z,11.30
2023-11-26T11:35:47.118Z,12.48
2023-11-26T11:38:14.180Z,13.57
2023-11-26T11:40:58.944Z,11.35
2023-11-26T11:43:25.633Z,12.23
2023-11-26T11:45:52.143Z,16.90
2023-11-26T11:48:37.378Z,14.45
2023-11-26T11:51:03.996Z,16.23
2023-11-26T11:53:35.261Z,19.15
2023-11-26T11:56:07.617Z,14.23
2023-11-26T11:58:35.074Z,19.23
2023-11-26T12:01:01.808Z,16.02
2023-11-26T12:03:28.652Z,17.48
2023-11-26T12:06:08.859Z,16.90
2023-11-26T12:08:35.438Z,15.88
2023-11-26T12:11:08.423Z,20.67
2023-11-26T12:13:40.962Z,21.95
2023-11-26T12:16:07.847Z,27.90
2023-11-26T12:18:34.522Z,24.52
2023-11-26T12:21:01.126Z,19.90
2023-11-26T12:23:36.915Z,22.13
2023-11-26T12:26:04.810Z,20.58
2023-11-26T12:28:41.266Z,20.15
2023-11-26T12:31:07.931Z,25.45
2023-11-26T12:33:34.962Z,18.35
2023-11-26T12:36:02.305Z,18.10
2023-11-26T12:38:28.995Z,17.38
2023-11-26T12:40:57.311Z,22.63
2023-11-26T12:43:25.998Z,22.50
2023-11-26T12:45:52.705Z,18.40
2023-11-26T12:48:19.310Z,17.20
2023-11-26T12:50:46.228Z,15.75
2023-11-26T12:53:13.239Z,17.90
2023-11-26T12:55:46.632Z,18.00
2023-11-26T12:58:25.598Z,19.33
2023-11-26T13:00:53.029Z,23.23
2023-11-26T13:03:21.421Z,26.42
2023-11-26T13:05:48.762Z,19.17
2023-11-26T13:08:22.373Z,20.48
2023-11-26T13:10:55.879Z,22.75
2023-11-26T13:13:33.194Z,21.30
2023-11-26T13:16:00.727Z,17.70
2023-11-26T13:18:28.108Z,19.80
2023-11-26T13:20:58.292Z,23.55
2023-11-26T13:23:25.953Z,27.23
2023-11-26T13:25:53.457Z,21.10
2023-11-26T13:28:20.977Z,24.35
2023-11-26T13:30:48.275Z,24.85
2023-11-26T13:33:15.533Z,23.30
2023-11-26T13:35:42.572Z,19.55
2023-11-26T13:38:09.735Z,23.17
2023-11-26T13:40:38.896Z,26.45
2023-11-26T13:43:06.176Z,24.40
2023-11-26T13:45:33.351Z,24.30
2023-11-26T13:48:05.563Z,27.27
2023-11-26T13:50:37.979Z,23.92
2023-11-26T13:53:06.345Z,21.70
2023-11-26T13:55:32.904Z,25.77
2023-11-26T13:58:02.735Z,24.05
2023-11-26T14:00:29.890Z,17.73
2023-11-26T14:02:57.257Z,16.13
2023-11-26T14:05:24.371Z,15.75
2023-11-26T14:07:52.999Z,11.68
2023-11-26T14:10:21.447Z,19.35
2023-11-26T14:12:49.027Z,12.25
2023-11-26T14:15:16.206Z,11.63
2023-11-26T14:17:44.313Z,11.15
2023-11-26T14:20:13.421Z,13.27
2023-11-26T14:22:43.276Z,13.48
2023-11-26T14:25:12.793Z,13.02
2023-11-26T14:27:39.530Z,12.30
2023-11-26T14:30:06.526Z,11.30
2023-11-26T14:32:33.216Z,8.55
2023-11-26T14:34:59.822Z,9.48
2023-11-26T14:37:26.325Z,8.50
2023-11-26T14:39:53.030Z,5.97
2023-11-26T14:42:20.184Z,3.72
2023-11-26T14:44:46.920Z,3.15
2023-11-26T14:47:13.722Z,4.45
2023-11-26T14:49:40.231Z,2.78
2023-11-26T14:52:10.011Z,2.72
2023-11-26T14:54:37.161Z,1.77
2023-11-26T14:57:04.036Z,4.80
2023-11-26T14:59:33.190Z,3.70
2023-11-26T15:02:00.217Z,5.25
2023-11-26T15:04:26.840Z,4.95
2023-11-26T15:06:54.818Z,4.63
2023-11-26T15:09:21.590Z,5.32
2023-11-26T15:11:48.161Z,5.35
2023-11-26T15:14:16.085Z,5.15
2023-11-26T15:16:42.850Z,7.25
2023-11-26T15:19:09.504Z,7.90
2023-11-26T15:21:36.431Z,9.32
2023-11-26T15:24:04.176Z,9.82
2023-11-26T15:26:31.793Z,9.02
2023-11-26T15:28:58.345Z,10.23
2023-11-26T15:31:25.328Z,7.18
2023-11-26T15:33:52.195Z,7.75
2023-11-26T15:36:22.283Z,6.97
2023-11-26T15:38:49.206Z,8.45
2023-11-26T15:41:22.870Z,11.75
2023-11-26T15:43:50.260Z,9.77
2023-11-26T15:46:19.840Z,10.55
2023-11-26T15:48:46.755Z,8.75
2023-11-26T15:51:13.606Z,6.72
2023-11-26T15:53:40.161Z,7.90
2023-11-26T15:56:07.220Z,8.27
2023-11-26T15:58:33.783Z,8.23
2023-11-26T16:01:00.338Z,6.60
2023-11-26T16:03:27.035Z,8.15
2023-11-26T16:05:54.509Z,9.55
2023-11-26T16:08:21.589Z,7.65
2023-11-26T16:10:48.481Z,9.63
2023-11-26T16:13:15.844Z,10.30
2023-11-26T16:15:42.618Z,10.05
2023-11-26T16:18:09.221Z,9.55
2023-11-26T16:20:35.746Z,7.40
2023-11-26T16:23:02.328Z,12.38
2023-11-26T16:25:28.854Z,10.00
2023-11-26T16:27:57.806Z,13.07
2023-11-26T16:30:24.802Z,5.13
2023-11-26T16:32:51.761Z,8.85
2023-11-26T16:35:18.464Z,6.55
2023-11-26T16:37:45.493Z,6.25
2023-11-26T16:40:12.566Z,9.02
2023-11-26T16:42:39.337Z,8.45
2023-11-26T16:45:06.082Z,6.80
2023-11-26T16:47:36.236Z,6.45
2023-11-26T16:52:31.201Z,10.18
2023-11-26T16:54:58.020Z,9.68
2023-11-26T16:57:25.366Z,9.40
2023-11-26T16:59:52.198Z,8.05
2023-11-26T17:02:20.950Z,10.07
2023-11-26T17:04:48.505Z,9.20
2023-11-26T17:07:18.051Z,8.88
2023-11-26T17:09:44.693Z,8.00
2023-11-26T17:12:12.267Z,8.65
2023-11-26T17:14:39.923Z,7.90
2023-11-26T17:17:07.873Z,7.47
2023-11-26T17:19:34.439Z,9.20
2023-11-26T17:22:01.091Z,9.13
2023-11-26T17:24:27.723Z,10.43
2023-11-26T17:26:54.552Z,8.57
2023-11-26T17:29:21.056Z,16.75
2023-11-26T17:31:47.580Z,12.77
2023-11-26T17:34:14.333Z,8.27
2023-11-26T17:36:45.183Z,7.45
2023-11-26T17:39:11.836Z,9.13
2023-11-26T17:41:38.369Z,9.90
2023-11-26T17:44:05.066Z,6.13
2023-11-26T17:46:31.756Z,6.95
2023-11-26T17:48:58.364Z,4.85
2023-11-26T17:51:24.920Z,4.18
2023-11-26T17:53:51.413Z,14.68
2023-11-26T17:56:18.041Z,9.57
2023-11-26T17:58:45.519Z,11.65
2023-11-26T18:01:13.957Z,9.48
2023-11-26T18:03:40.788Z,11.20
2023-11-26T18:06:10.728Z,10.00
2023-11-26T18:08:37.569Z,10.02
2023-11-26T18:11:05.047Z,13.18
2023-11-26T18:13:33.072Z,12.35
2023-11-26T18:15:59.980Z,11.02
2023-11-26T18:18:26.549Z,10.30
2023-11-26T18:20:53.234Z,9.13
2023-11-26T18:23:20.003Z,8.07
2023-11-26T18:25:46.543Z,8.43
2023-11-26T18:28:13.233Z,9.02
2023-11-26T18:30:40.280Z,21.15
2023-11-26T18:33:06.940Z,11.30
2023-11-26T18:35:34.088Z,9.23
2023-11-26T18:38:01.966Z,8.98
2023-11-26T18:40:28.560Z,7.35
2023-11-26T18:42:55.131Z,5.95
2023-11-26T18:45:22.124Z,11.80
2023-11-26T18:47:48.794Z,9.65
2023-11-26T18:50:15.822Z,10.55
2023-11-26T18:52:42.433Z,6.43
2023-11-26T18:55:09.190Z,8.02
2023-11-26T18:57:35.904Z,9.63
2023-11-26T19:00:03.336Z,9.15
2023-11-26T19:02:30.218Z,11.15
2023-11-26T19:04:56.782Z,8.07
2023-11-26T19:07:23.972Z,11.43
2023-11-26T19:09:50.625Z,8.05
2023-11-26T19:12:17.725Z,8.00
2023-11-26T19:14:44.549Z,7.97
2023-11-26T19:17:11.079Z,9.95
2023-11-26T19:19:38.142Z,10.77
2023-11-26T19:22:05.310Z,9.93
2023-11-26T19:24:32.210Z,7.13
2023-11-26T19:26:58.869Z,11.27
2023-11-26T19:29:25.955Z,8.43
2023-11-26T19:31:52.703Z,7.40
2023-11-26T19:34:19.383Z,8.80
2023-11-26T19:36:46.097Z,7.03
2023-11-26T19:39:14.305Z,12.57
2023-11-26T19:41:41.097Z,6.07
2023-11-26T19:44:07.675Z,8.85
2023-11-26T19:46:34.352Z,5.78
2023-11-26T19:49:00.972Z,6.88
2023-11-26T19:51:31.212Z,12.35
2023-11-26T19:53:57.781Z,5.13
2023-11-26T19:56:24.455Z,8.57
2023-11-26T19:58:51.144Z,8.48
2023-11-26T20:01:18.343Z,9.18
2023-11-26T20:03:46.887Z,7.85
2023-11-26T20:06:14.015Z,6.47
2023-11-26T20:08:41.068Z,5.47
2023-11-26T20:11:09.518Z,5.30
2023-11-26T20:13:36.484Z,7.90
2023-11-26T20:16:03.142Z,6.40
2023-11-26T20:18:31.916Z,6.53
2023-11-26T20:21:00.240Z,6.60
2023-11-26T20:23:27.224Z,6.43
2023-11-26T20:25:54.266Z,4.93
2023-11-26T20:28:24.291Z,4.28
2023-11-26T20:30:52.466Z,9.00
2023-11-26T20:33:19.386Z,6.30
2023-11-26T20:35:46.260Z,9.00
2023-11-26T20:38:12.794Z,7.22
2023-11-26T20:40:40.073Z,9.95
2023-11-26T20:43:06.698Z,5.90
2023-11-26T20:45:33.453Z,5.05
2023-11-26T20:48:00.250Z,3.35
2023-11-26T20:50:27.099Z,4.45
2023-11-26T20:52:54.252Z,5.13
2023-11-26T20:55:20.919Z,4.22
2023-11-26T20:57:47.563Z,6.38
2023-11-26T21:00:14.542Z,4.20
2023-11-26T21:02:44.554Z,6.32
2023-11-26T21:05:11.679Z,5.65
2023-11-26T21:07:38.617Z,6.75
2023-11-26T21:10:07.451Z,6.03
2023-11-26T21:12:34.566Z,5.82
2023-11-26T21:15:01.393Z,4.30
2023-11-26T21:17:28.141Z,6.13
2023-11-26T21:19:54.749Z,7.70
2023-11-26T21:22:24.226Z,6.13
2023-11-26T21:24:52.194Z,6.53
2023-11-26T21:27:19.392Z,5.25
2023-11-26T21:29:46.019Z,5.20
2023-11-26T21:32:15.006Z,5.47
2023-11-26T21:34:45.153Z,6.65
2023-11-26T21:37:12.695Z,11.45
2023-11-26T21:39:39.491Z,3.72
2023-11-26T21:42:06.158Z,5.47
2023-11-26T21:44:32.657Z,8.13
2023-11-26T21:46:59.266Z,2.50
2023-11-26T21:49:25.978Z,4.53
2023-11-26T21:51:52.548Z,3.83
2023-11-26T21:54:19.981Z,5.45
2023-11-26T21:56:46.641Z,3.97
2023-11-26T21:59:14.225Z,4.10
2023-11-26T22:01:43.179Z,3.50
2023-11-26T22:04:10.184Z,4.68
2023-11-26T22:06:36.805Z,4.60
2023-11-26T22:09:03.443Z,6.28
2023-11-26T22:11:29.972Z,5.55
2023-11-26T22:13:56.471Z,5.35
2023-11-26T22:16:23.233Z,5.75
2023-11-26T22:18:50.077Z,10.45
2023-11-26T22:21:17.180Z,5.22
2023-11-26T22:23:43.863Z,4.78
2023-11-26T22:26:10.670Z,4.07
2023-11-26T22:28:37.731Z,4.78
2023-11-26T22:31:04.364Z,8.45
2023-11-26T22:33:30.996Z,6.45
2023-11-26T22:35:57.617Z,4.57
2023-11-26T22:38:24.116Z,5.72
2023-11-26T22:40:50.709Z,8.32
2023-11-26T22:43:17.445Z,7.47
2023-11-26T22:45:44.043Z,5.85
2023-11-26T22:48:10.689Z,6.88
2023-11-26T22:50:47.685Z,6.53
2023-11-26T22:53:19.035Z,10.30
2023-11-26T22:55:45.665Z,8.60
2023-11-26T22:58:12.409Z,6.03
2023-11-26T23:00:39.765Z,13.23
2023-11-26T23:03:06.433Z,7.70
2023-11-26T23:05:33.153Z,8.90
2023-11-26T23:08:00.693Z,10.75
2023-11-26T23:10:27.344Z,8.07
2023-11-26T23:12:54.045Z,8.93
2023-11-26T23:15:20.737Z,10.85
2023-11-26T23:17:47.503Z,8.10
2023-11-26T23:20:14.264Z,11.05
2023-11-26T23:22:40.801Z,8.23
2023-11-26T23:25:10.719Z,10.73
2023-11-26T23:27:38.214Z,10.45
2023-11-26T23:30:05.531Z,6.82
2023-11-26T23:32:32.168Z,9.10
2023-11-26T23:34:58.931Z,12.10
2023-11-26T23:37:25.600Z,8.25
2023-11-26T23:39:54.780Z,8.23
2023-11-26T23:42:21.449Z,6.80
2023-11-26T23:44:48.075Z,12.88
2023-11-26T23:47:14.701Z,8.63
2023-11-26T23:49:41.213Z,6.80
2023-11-26T23:52:07.864Z,7.80
2023-11-26T23:54:34.450Z,7.18
2023-11-26T23:57:01.052Z,6.50
2023-11-26T23:59:27.587Z,10.48
